createdAt,value
2022-11-24T00:01:29.889Z,4.28
2022-11-24T00:04:33.118Z,5.30
2022-11-24T00:07:36.255Z,4.65
2022-11-24T00:10:39.460Z,4.22
2022-11-24T00:13:42.927Z,4.82
2022-11-24T00:16:45.990Z,4.05
2022-11-24T00:19:49.132Z,4.07
2022-11-24T00:22:52.190Z,3.47
2022-11-24T00:25:55.439Z,3.75
2022-11-24T00:29:01.398Z,4.07
2022-11-24T00:32:06.577Z,3.65
2022-11-24T00:35:09.744Z,5.70
2022-11-24T00:38:12.750Z,3.53
2022-11-24T00:41:15.873Z,3.83
2022-11-24T00:44:19.206Z,3.95
2022-11-24T00:47:22.440Z,3.05
2022-11-24T00:50:25.515Z,3.75
2022-11-24T00:53:29.300Z,3.42
2022-11-24T00:56:32.478Z,5.07
2022-11-24T00:59:35.638Z,3.20
2022-11-24T01:02:38.791Z,3.92
2022-11-24T01:05:43.035Z,3.35
2022-11-24T01:08:46.851Z,3.53
2022-11-24T01:12:01.916Z,5.15
2022-11-24T01:15:05.373Z,5.30
2022-11-24T01:18:08.599Z,5.20
2022-11-24T01:21:11.681Z,4.10
2022-11-24T01:24:15.661Z,4.25
2022-11-24T01:27:18.703Z,4.25
2022-11-24T01:30:23.769Z,4.20
2022-11-24T01:33:26.887Z,5.72
2022-11-24T01:36:30.137Z,5.45
2022-11-24T01:39:33.204Z,5.13
2022-11-24T01:42:53.318Z,6.03
2022-11-24T01:45:56.897Z,5.88
2022-11-24T01:49:18.511Z,4.85
2022-11-24T01:52:44.431Z,5.45
2022-11-24T01:55:47.708Z,3.63
2022-11-24T01:58:52.964Z,4.53
2022-11-24T02:01:57.701Z,6.07
2022-11-24T02:05:06.692Z,7.55
2022-11-24T02:08:34.893Z,4.30
2022-11-24T02:11:40.554Z,5.05
2022-11-24T02:14:45.261Z,6.68
2022-11-24T02:17:48.453Z,7.30
2022-11-24T02:20:51.684Z,6.78
2022-11-24T02:24:11.093Z,7.97
2022-11-24T02:27:14.614Z,5.47
2022-11-24T02:30:18.027Z,5.50
2022-11-24T02:33:23.263Z,7.88
2022-11-24T02:36:26.988Z,9.13
2022-11-24T02:39:30.369Z,7.18
2022-11-24T02:42:38.271Z,7.63
2022-11-24T02:45:41.444Z,7.03
2022-11-24T02:48:44.493Z,6.80
2022-11-24T02:51:47.622Z,7.90
2022-11-24T02:54:50.684Z,8.02
2022-11-24T02:57:53.824Z,11.57
2022-11-24T03:00:58.848Z,10.30
2022-11-24T03:04:01.971Z,9.10
2022-11-24T03:07:05.112Z,9.65
2022-11-24T03:10:08.538Z,9.52
2022-11-24T03:13:11.931Z,8.32
2022-11-24T03:16:15.178Z,11.55
2022-11-24T03:19:18.330Z,11.40
2022-11-24T03:22:21.624Z,11.02
2022-11-24T03:25:25.402Z,10.25
2022-11-24T03:28:30.125Z,11.27
2022-11-24T03:31:33.429Z,9.75
2022-11-24T03:34:37.038Z,10.63
2022-11-24T03:37:40.287Z,12.55
2022-11-24T03:40:43.543Z,9.98
2022-11-24T03:43:46.680Z,10.50
2022-11-24T03:46:49.970Z,10.30
2022-11-24T03:49:53.271Z,9.93
2022-11-24T03:52:56.393Z,12.50
2022-11-24T03:55:59.472Z,12.77
2022-11-24T03:59:02.810Z,17.33
2022-11-24T04:02:06.313Z,22.10
2022-11-24T04:05:10.175Z,23.02
2022-11-24T04:08:13.695Z,29.88
2022-11-24T04:11:35.482Z,21.85
2022-11-24T04:14:41.574Z,19.00
2022-11-24T04:17:45.788Z,11.32
2022-11-24T04:20:53.428Z,15.00
2022-11-24T04:23:56.864Z,21.15
2022-11-24T04:27:00.343Z,16.02
2022-11-24T04:30:04.800Z,12.82
2022-11-24T04:33:08.073Z,13.13
2022-11-24T04:36:11.257Z,11.65
2022-11-24T04:39:23.249Z,10.85
2022-11-24T04:42:29.928Z,11.65
2022-11-24T04:45:33.288Z,11.70
2022-11-24T04:48:37.142Z,8.57
2022-11-24T04:51:40.743Z,7.75
2022-11-24T04:54:44.447Z,7.47
2022-11-24T04:57:49.955Z,7.22
2022-11-24T05:00:53.434Z,5.35
2022-11-24T05:03:57.363Z,5.88
2022-11-24T05:07:00.525Z,7.32
2022-11-24T05:10:21.778Z,8.60
2022-11-24T05:13:24.934Z,8.93
2022-11-24T05:16:28.289Z,8.10
2022-11-24T05:19:32.502Z,8.65
2022-11-24T05:22:36.492Z,11.23
2022-11-24T05:25:42.402Z,11.68
2022-11-24T05:28:48.115Z,12.05
2022-11-24T05:31:51.329Z,11.38
2022-11-24T05:34:55.206Z,13.75
2022-11-24T05:37:59.729Z,9.60
2022-11-24T05:41:04.647Z,10.82
2022-11-24T05:44:07.835Z,15.50
2022-11-24T05:47:10.907Z,12.77
2022-11-24T05:50:16.653Z,14.30
2022-11-24T05:53:19.756Z,9.98
2022-11-24T05:56:23.050Z,11.38
2022-11-24T05:59:26.137Z,11.02
2022-11-24T06:02:29.322Z,10.60
2022-11-24T06:05:32.799Z,11.75
2022-11-24T06:08:35.965Z,10.57
2022-11-24T06:11:39.178Z,12.27
2022-11-24T06:14:42.506Z,9.57
2022-11-24T06:17:45.788Z,11.60
2022-11-24T06:21:09.758Z,10.85
2022-11-24T06:24:13.579Z,10.27
2022-11-24T06:27:16.668Z,11.07
2022-11-24T06:30:19.989Z,11.95
2022-11-24T06:33:23.091Z,10.88
2022-11-24T06:36:26.226Z,12.35
2022-11-24T06:39:29.537Z,11.30
2022-11-24T06:42:32.661Z,10.65
2022-11-24T06:45:35.958Z,10.57
2022-11-24T06:48:39.456Z,10.63
2022-11-24T06:51:43.260Z,8.82
2022-11-24T06:54:46.359Z,9.27
2022-11-24T06:57:49.584Z,9.50
2022-11-24T07:00:52.842Z,9.23
2022-11-24T07:03:57.369Z,9.48
2022-11-24T07:07:01.131Z,9.65
2022-11-24T07:10:04.436Z,9.15
2022-11-24T07:13:10.428Z,7.68
2022-11-24T07:16:18.855Z,11.88
2022-11-24T07:19:25.016Z,11.68
2022-11-24T07:22:28.540Z,12.40
2022-11-24T07:25:31.639Z,12.23
2022-11-24T07:28:35.380Z,15.05
2022-11-24T07:31:38.747Z,14.68
2022-11-24T07:34:41.878Z,14.32
2022-11-24T07:37:45.296Z,15.10
2022-11-24T07:40:48.358Z,12.70
2022-11-24T07:43:52.198Z,9.70
2022-11-24T07:46:55.497Z,10.48
2022-11-24T07:49:58.516Z,10.40
2022-11-24T07:53:05.611Z,11.70
2022-11-24T07:56:10.072Z,12.27
2022-11-24T07:59:13.173Z,11.02
2022-11-24T08:02:16.359Z,12.10
2022-11-24T08:05:19.521Z,10.98
2022-11-24T08:08:23.093Z,10.68
2022-11-24T08:11:27.086Z,11.63
2022-11-24T08:14:30.314Z,10.40
2022-11-24T08:17:33.554Z,10.35
2022-11-24T08:20:36.844Z,11.98
2022-11-24T08:23:39.937Z,12.25
2022-11-24T08:26:44.019Z,9.07
2022-11-24T08:29:47.399Z,10.10
2022-11-24T08:32:50.711Z,10.32
2022-11-24T08:35:54.015Z,10.57
2022-11-24T08:38:58.870Z,10.23
2022-11-24T08:42:01.995Z,14.63
2022-11-24T08:45:19.834Z,17.40
2022-11-24T08:48:24.368Z,17.45
2022-11-24T08:51:28.337Z,27.27
2022-11-24T08:54:31.709Z,24.80
2022-11-24T08:57:34.980Z,24.27
2022-11-24T09:00:38.216Z,26.25
2022-11-24T09:03:49.742Z,19.40
2022-11-24T09:06:53.440Z,20.48
2022-11-24T09:09:56.680Z,18.42
2022-11-24T09:12:59.847Z,20.65
2022-11-24T09:16:08.645Z,23.05
2022-11-24T09:19:11.831Z,19.00
2022-11-24T09:22:15.024Z,21.52
2022-11-24T09:25:18.334Z,21.13
2022-11-24T09:28:21.435Z,21.10
2022-11-24T09:31:27.134Z,25.58
2022-11-24T09:34:30.365Z,22.25
2022-11-24T09:37:36.167Z,25.88
2022-11-24T09:40:39.365Z,25.17
2022-11-24T09:43:54.480Z,21.80
2022-11-24T09:47:14.681Z,24.10
2022-11-24T09:50:23.111Z,26.85
2022-11-24T09:53:40.003Z,22.52
2022-11-24T09:56:44.259Z,25.67
2022-11-24T09:59:47.546Z,22.15
2022-11-24T10:02:51.004Z,25.35
2022-11-24T10:05:54.962Z,24.55
2022-11-24T10:09:35.848Z,20.50
2022-11-24T10:12:54.270Z,21.33
2022-11-24T10:16:22.509Z,24.35
2022-11-24T10:19:37.781Z,20.55
2022-11-24T10:23:13.354Z,23.15
2022-11-24T10:26:41.499Z,17.92
2022-11-24T10:29:45.886Z,17.80
2022-11-24T10:33:28.794Z,20.98
2022-11-24T10:36:59.778Z,20.52
2022-11-24T10:40:56.864Z,23.92
2022-11-24T10:44:03.763Z,22.52
2022-11-24T10:47:19.288Z,28.65
2022-11-24T10:50:43.405Z,19.70
2022-11-24T10:53:48.788Z,27.75
2022-11-24T10:56:54.352Z,30.30
2022-11-24T10:59:57.724Z,19.73
2022-11-24T11:03:19.419Z,22.90
2022-11-24T11:06:24.080Z,22.92
2022-11-24T11:09:27.270Z,26.77
2022-11-24T11:12:43.801Z,21.80
2022-11-24T11:15:48.190Z,21.95
2022-11-24T11:18:51.483Z,24.70
2022-11-24T11:22:16.742Z,28.50
2022-11-24T11:25:23.948Z,27.48
2022-11-24T11:28:30.510Z,32.47
2022-11-24T11:31:35.797Z,31.10
2022-11-24T11:34:42.875Z,33.63
2022-11-24T11:37:48.292Z,37.20
2022-11-24T11:40:53.207Z,33.47
2022-11-24T11:44:16.757Z,36.65
2022-11-24T11:47:28.364Z,34.55
2022-11-24T11:51:21.322Z,38.65
2022-11-24T11:54:33.477Z,38.00
2022-11-24T11:57:45.707Z,35.75
2022-11-24T12:01:18.921Z,37.53
2022-11-24T12:04:54.006Z,39.38
2022-11-24T12:08:21.095Z,41.47
2022-11-24T12:11:39.745Z,44.53
2022-11-24T12:15:11.123Z,51.10
2022-11-24T12:18:58.648Z,57.30
2022-11-24T12:22:37.859Z,73.65
2022-11-24T12:25:57.926Z,62.78
2022-11-24T12:29:35.128Z,67.47
2022-11-24T12:33:10.462Z,69.03
2022-11-24T12:36:42.323Z,60.90
2022-11-24T12:40:03.492Z,52.47
2022-11-24T12:43:18.640Z,34.10
2022-11-24T12:47:24.049Z,49.72
2022-11-24T12:50:30.740Z,34.63
2022-11-24T12:53:35.609Z,44.92
2022-11-24T12:56:48.157Z,62.50
2022-11-24T13:00:22.069Z,50.38
2022-11-24T13:03:42.015Z,66.07
2022-11-24T13:06:58.087Z,60.05
2022-11-24T13:10:40.077Z,52.72
2022-11-24T13:14:22.870Z,35.95
2022-11-24T13:17:42.084Z,39.58
2022-11-24T13:20:55.057Z,41.97
2022-11-24T13:24:07.256Z,56.85
2022-11-24T13:28:02.048Z,66.00
2022-11-24T13:31:12.209Z,39.95
2022-11-24T13:34:56.511Z,42.60
2022-11-24T13:38:03.254Z,45.83
2022-11-24T13:41:27.566Z,49.55
2022-11-24T13:44:49.644Z,35.75
2022-11-24T13:47:53.093Z,34.08
2022-11-24T13:55:30.271Z,30.30
2022-11-24T13:58:57.438Z,45.10
2022-11-24T14:02:23.220Z,53.45
2022-11-24T14:05:39.616Z,51.90
2022-11-24T14:08:46.087Z,47.45
2022-11-24T14:12:06.956Z,50.47
2022-11-24T14:15:37.008Z,46.17
2022-11-24T14:18:42.257Z,44.17
2022-11-24T14:21:49.244Z,34.72
2022-11-24T14:25:00.313Z,36.63
2022-11-24T14:28:03.684Z,36.67
2022-11-24T14:31:22.660Z,36.97
2022-11-24T14:34:28.795Z,33.58
2022-11-24T14:37:32.087Z,39.35
2022-11-24T14:45:04.378Z,38.45
2022-11-24T14:48:17.291Z,40.78
2022-11-24T14:51:28.486Z,37.17
2022-11-24T14:54:32.785Z,35.42
2022-11-24T14:57:42.965Z,55.42
2022-11-24T15:01:42.319Z,55.45
2022-11-24T15:05:03.664Z,39.83
2022-11-24T15:08:34.419Z,41.88
2022-11-24T15:11:37.596Z,37.50
2022-11-24T15:15:06.418Z,35.15
2022-11-24T15:18:41.987Z,31.33
2022-11-24T15:21:45.236Z,27.58
2022-11-24T15:24:54.377Z,27.95
2022-11-24T15:27:57.794Z,40.55
2022-11-24T15:31:01.920Z,36.70
2022-11-24T15:34:05.115Z,35.58
2022-11-24T15:37:13.941Z,35.70
2022-11-24T15:40:17.614Z,33.78
2022-11-24T15:44:07.610Z,45.25
2022-11-24T15:47:14.061Z,38.40
2022-11-24T15:53:58.680Z,42.08
2022-11-24T15:57:16.030Z,41.88
2022-11-24T16:00:47.950Z,47.00
2022-11-24T16:04:22.125Z,44.30
2022-11-24T16:07:34.960Z,45.50
2022-11-24T16:10:38.323Z,34.33
2022-11-24T16:14:36.706Z,41.30
2022-11-24T16:17:40.686Z,35.00
2022-11-24T16:20:43.809Z,33.38
2022-11-24T16:23:48.259Z,39.22
2022-11-24T16:26:51.346Z,39.90
2022-11-24T16:29:54.506Z,35.38
2022-11-24T16:32:58.012Z,38.15
2022-11-24T16:36:01.135Z,34.38
2022-11-24T16:39:04.437Z,29.73
2022-11-24T16:42:07.700Z,30.55
2022-11-24T16:45:22.651Z,30.42
2022-11-24T16:48:25.771Z,27.98
2022-11-24T16:51:34.477Z,27.90
2022-11-24T16:54:38.078Z,28.58
2022-11-24T16:57:41.169Z,32.95
2022-11-24T17:00:44.441Z,34.13
2022-11-24T17:03:47.624Z,32.92
2022-11-24T17:06:50.739Z,39.97
2022-11-24T17:09:53.866Z,41.05
2022-11-24T17:12:57.027Z,36.35
2022-11-24T17:16:03.929Z,44.42
2022-11-24T17:19:18.653Z,35.80
2022-11-24T17:22:21.966Z,37.15
2022-11-24T17:25:25.533Z,30.23
2022-11-24T17:28:28.892Z,38.50
2022-11-24T17:31:36.112Z,29.67
2022-11-24T17:34:39.171Z,30.45
2022-11-24T17:37:42.312Z,19.75
2022-11-24T17:40:48.954Z,18.48
2022-11-24T17:43:54.119Z,15.55
2022-11-24T17:47:04.666Z,17.27
2022-11-24T17:50:20.058Z,13.55
2022-11-24T17:53:25.659Z,12.90
2022-11-24T17:56:31.814Z,13.95
2022-11-24T17:59:50.416Z,18.77
2022-11-24T18:02:53.663Z,21.00
2022-11-24T18:05:56.930Z,26.52
2022-11-24T18:09:01.511Z,21.92
2022-11-24T18:12:05.842Z,26.85
2022-11-24T18:15:10.505Z,26.88
2022-11-24T18:18:19.655Z,24.05
2022-11-24T18:21:22.847Z,32.00
2022-11-24T18:24:25.948Z,30.90
2022-11-24T18:27:43.512Z,33.95
2022-11-24T18:31:00.861Z,36.38
2022-11-24T18:34:05.893Z,34.35
2022-11-24T18:37:10.983Z,31.52
2022-11-24T18:40:45.847Z,27.40
2022-11-24T18:43:49.098Z,25.60
2022-11-24T18:46:52.200Z,27.05
2022-11-24T18:49:55.405Z,25.98
2022-11-24T18:52:58.505Z,24.65
2022-11-24T18:56:04.169Z,19.55
2022-11-24T18:59:07.680Z,17.73
2022-11-24T19:02:12.993Z,13.32
2022-11-24T19:05:16.752Z,16.02
2022-11-24T19:08:19.826Z,16.42
2022-11-24T19:11:26.259Z,15.10
2022-11-24T19:14:29.403Z,9.18
2022-11-24T19:17:32.504Z,10.00
2022-11-24T19:20:36.095Z,9.55
2022-11-24T19:23:39.246Z,8.32
2022-11-24T19:26:42.424Z,8.82
2022-11-24T19:29:45.593Z,8.32
2022-11-24T19:32:48.732Z,6.45
2022-11-24T19:36:04.513Z,7.43
2022-11-24T19:42:11.019Z,5.68
2022-11-24T19:45:14.337Z,4.88
2022-11-24T19:48:18.726Z,5.78
2022-11-24T19:51:27.653Z,4.82
2022-11-24T19:54:30.879Z,5.15
2022-11-24T19:57:34.270Z,3.38
2022-11-24T20:00:40.269Z,3.70
2022-11-24T20:03:45.024Z,4.28
2022-11-24T20:06:48.680Z,4.10
2022-11-24T20:09:52.269Z,3.35
2022-11-24T20:12:58.556Z,3.13
2022-11-24T20:16:07.206Z,2.90
2022-11-24T20:19:14.978Z,4.20
2022-11-24T20:22:18.589Z,3.88
2022-11-24T20:25:22.007Z,3.67
2022-11-24T20:28:25.919Z,3.47
2022-11-24T20:31:32.877Z,3.40
2022-11-24T20:34:42.569Z,2.83
2022-11-24T20:37:48.028Z,3.28
2022-11-24T20:40:51.142Z,2.95
2022-11-24T20:43:56.000Z,3.05
2022-11-24T20:47:00.926Z,2.70
2022-11-24T20:50:07.507Z,2.50
2022-11-24T20:53:16.931Z,2.20
2022-11-24T20:56:23.089Z,2.70
2022-11-24T20:59:26.374Z,2.13
2022-11-24T21:02:29.534Z,1.98
2022-11-24T21:05:33.489Z,2.45
2022-11-24T21:08:38.476Z,2.33
2022-11-24T21:11:41.871Z,2.47
2022-11-24T21:14:46.806Z,2.67
2022-11-24T21:17:50.570Z,3.30
2022-11-24T21:20:55.556Z,2.22
2022-11-24T21:23:59.574Z,2.33
2022-11-24T21:27:03.843Z,2.67
2022-11-24T21:30:10.413Z,2.97
2022-11-24T21:33:14.500Z,4.95
2022-11-24T21:36:20.686Z,3.58
2022-11-24T21:39:24.473Z,7.05
2022-11-24T21:42:28.607Z,11.18
2022-11-24T21:45:35.459Z,9.13
2022-11-24T21:48:43.893Z,10.95
2022-11-24T21:51:47.080Z,11.55
2022-11-24T21:54:50.946Z,10.50
2022-11-24T21:57:54.357Z,6.20
2022-11-24T22:01:06.504Z,4.07
2022-11-24T22:04:10.623Z,4.15
2022-11-24T22:07:14.558Z,4.20
2022-11-24T22:10:20.963Z,6.30
2022-11-24T22:13:24.755Z,4.25
2022-11-24T22:16:28.166Z,6.35
2022-11-24T22:19:31.433Z,4.68
2022-11-24T22:22:35.393Z,4.72
2022-11-24T22:25:38.596Z,4.10
2022-11-24T22:28:42.885Z,3.13
2022-11-24T22:31:46.123Z,4.45
2022-11-24T22:34:49.401Z,5.00
2022-11-24T22:37:52.929Z,3.10
2022-11-24T22:41:00.757Z,4.05
2022-11-24T22:44:04.777Z,3.95
2022-11-24T22:47:08.089Z,4.05
2022-11-24T22:50:11.805Z,7.60
2022-11-24T22:53:18.128Z,4.47
2022-11-24T22:56:22.814Z,8.88
2022-11-24T22:59:29.379Z,5.68
2022-11-24T23:02:40.657Z,5.10
2022-11-24T23:06:33.979Z,8.57
2022-11-24T23:09:37.156Z,5.50
2022-11-24T23:12:40.434Z,3.55
2022-11-24T23:15:43.745Z,6.72
2022-11-24T23:18:52.393Z,6.15
2022-11-24T23:21:57.358Z,7.22
2022-11-24T23:25:00.417Z,5.65
2022-11-24T23:28:03.591Z,7.85
2022-11-24T23:31:09.473Z,10.15
2022-11-24T23:34:12.555Z,7.57
2022-11-24T23:37:15.793Z,4.32
2022-11-24T23:40:18.931Z,4.40
2022-11-24T23:43:21.986Z,5.03
2022-11-24T23:46:26.540Z,4.18
2022-11-24T23:49:30.676Z,6.55
2022-11-24T23:52:34.263Z,6.20
2022-11-24T23:55:37.481Z,1.75
2022-11-24T23:58:41.057Z,3.80
